Time;durP1;ratioP1;P1;durP2;ratioP2;P2;SDS_P1;SDS_P2;PMS_P1;PMS_P2;Temp;Humidity;BMP_temperature;BMP_pressure;BME280_temperature;BME280_humidity;BME280_pressure;Samples;Min_cycle;Max_cycle;Signal;HPM_P1;HPM_P2
2022/01/15 00:01:32;;;;;;;46.70;15.95;;;5.40;99.90;;;;;;5018500;28;20037;-68
2022/01/15 00:03:57;;;;;;;49.05;15.88;;;5.40;99.90;;;;;;5020779;28;20497;-69
2022/01/15 00:06:23;;;;;;;38.33;13.60;;;5.40;99.90;;;;;;5019914;28;20083;-68
2022/01/15 00:08:48;;;;;;;43.55;15.02;;;5.40;99.90;;;;;;5041599;22;20049;-61
2022/01/15 00:11:14;;;;;;;42.10;15.32;;;5.40;99.90;;;;;;5036053;28;20497;-61
2022/01/15 00:13:42;;;;;;;46.00;14.57;;;5.30;99.90;;;;;;5037713;28;20029;-65
2022/01/15 00:16:12;;;;;;;45.72;14.60;;;5.30;99.90;;;;;;5028557;28;20627;-61
2022/01/15 00:21:07;;;;;;;37.10;13.43;;;5.20;99.90;;;;;;5024714;28;20026;-61
2022/01/15 00:23:33;;;;;;;48.13;16.25;;;5.20;99.90;;;;;;5027857;28;20037;-62
2022/01/15 00:25:58;;;;;;;47.97;14.50;;;5.20;99.90;;;;;;5024636;28;20393;-61
2022/01/15 00:28:24;;;;;;;42.35;14.10;;;5.20;99.90;;;;;;5024314;28;20046;-62
2022/01/15 00:30:49;;;;;;;51.90;15.43;;;5.20;99.90;;;;;;5020361;28;20068;-62
2022/01/15 00:33:15;;;;;;;49.30;15.88;;;5.20;99.90;;;;;;5021483;28;20041;-62
2022/01/15 00:35:41;;;;;;;44.63;15.38;;;5.20;99.90;;;;;;5027596;28;20112;-61
2022/01/15 00:38:06;;;;;;;46.70;14.90;;;5.30;99.90;;;;;;5020124;28;20485;-60
2022/01/15 00:40:32;;;;;;;47.10;15.73;;;5.40;99.90;;;;;;5020140;28;20791;-61
2022/01/15 00:42:57;;;;;;;45.50;13.10;;;5.30;99.90;;;;;;5018502;28;20099;-61
2022/01/15 00:45:23;;;;;;;45.83;14.48;;;5.40;99.90;;;;;;5021641;28;20038;-61
2022/01/15 00:47:52;;;;;;;44.80;15.07;;;5.30;99.90;;;;;;5021390;28;20045;-62
2022/01/15 00:50:18;;;;;;;48.60;14.57;;;5.30;99.90;;;;;;5020539;28;20038;-61
2022/01/15 00:52:44;;;;;;;51.42;14.38;;;5.30;99.90;;;;;;5021697;28;20052;-61
2022/01/15 00:55:12;;;;;;;69.68;15.95;;;5.20;99.90;;;;;;5019777;28;20389;-62
2022/01/15 00:57:38;;;;;;;52.05;15.57;;;5.20;99.90;;;;;;5021521;28;20040;-61
2022/01/15 01:00:06;;;;;;;51.17;15.45;;;5.20;99.90;;;;;;5014335;28;20121;-61
2022/01/15 01:02:32;;;;;;;43.53;14.00;;;5.20;99.90;;;;;;5022177;28;20069;-61
2022/01/15 01:04:57;;;;;;;36.40;12.48;;;5.10;99.90;;;;;;5020944;28;20520;-61
2022/01/15 01:07:23;;;;;;;38.42;13.95;;;5.10;99.90;;;;;;5020549;28;20076;-61
2022/01/15 01:10:04;;;;;;;43.80;14.27;;;5.10;99.90;;;;;;5020322;28;20045;-61
2022/01/15 01:23:14;;;;;;;37.63;13.52;;;5.00;99.90;;;;;;5014297;28;20029;-61
2022/01/15 01:25:44;;;;;;;43.40;13.02;;;5.10;99.90;;;;;;5021955;28;20125;-62
2022/01/15 01:28:20;;;;;;;45.83;14.73;;;5.00;99.90;;;;;;5017784;28;20048;-62
2022/01/15 01:31:14;;;;;;;41.15;13.18;;;5.00;99.90;;;;;;5020575;28;20061;-62
2022/01/15 01:33:36;;;;;;;39.22;13.23;;;5.00;99.90;;;;;;5014714;28;20040;-61
2022/01/15 01:36:21;;;;;;;47.35;14.73;;;4.90;99.90;;;;;;5014303;28;20076;-61
2022/01/15 01:38:57;;;;;;;38.78;13.82;;;5.00;99.90;;;;;;5018015;28;20049;-62
2022/01/15 01:41:24;;;;;;;49.65;14.95;;;5.00;99.90;;;;;;5020900;28;20116;-62
2022/01/15 01:43:59;;;;;;;43.22;13.52;;;5.00;99.90;;;;;;5019722;28;20038;-61
2022/01/15 01:48:52;;;;;;;47.10;13.23;;;5.00;99.90;;;;;;5020413;28;20113;-62
2022/01/15 01:51:29;;;;;;;34.55;12.45;;;5.00;99.90;;;;;;5020124;28;20021;-61
2022/01/15 01:53:55;;;;;;;35.70;11.90;;;5.00;99.90;;;;;;5021833;28;20034;-62
2022/01/15 01:56:21;;;;;;;40.65;11.90;;;4.90;99.90;;;;;;5020612;28;20030;-61
2022/01/15 01:58:47;;;;;;;37.65;12.32;;;4.90;99.90;;;;;;5019967;28;20420;-63
2022/01/15 02:01:13;;;;;;;29.65;10.90;;;5.00;99.90;;;;;;5019616;28;20041;-61
2022/01/15 02:03:39;;;;;;;23.55;9.80;;;5.00;99.90;;;;;;5021125;28;20034;-61
2022/01/15 02:06:05;;;;;;;32.13;9.50;;;4.90;99.90;;;;;;5017982;28;20065;-62
2022/01/15 02:08:34;;;;;;;36.08;10.93;;;4.80;99.90;;;;;;5021765;28;20072;-62
2022/01/15 02:11:03;;;;;;;35.50;10.65;;;4.80;99.90;;;;;;5013483;28;20053;-61
2022/01/15 02:13:29;;;;;;;35.03;11.10;;;4.80;99.90;;;;;;5021220;28;20030;-62
2022/01/15 02:15:57;;;;;;;37.20;10.98;;;4.70;99.90;;;;;;5018250;28;20448;-60
2022/01/15 02:18:23;;;;;;;39.85;12.55;;;4.70;99.90;;;;;;5020688;28;20026;-62
2022/01/15 02:21:02;;;;;;;43.78;13.30;;;4.80;99.90;;;;;;5020556;28;20100;-61
2022/01/15 02:23:35;;;;;;;33.50;11.43;;;4.80;99.90;;;;;;5016884;28;20488;-61
2022/01/15 02:26:06;;;;;;;33.70;11.88;;;4.80;99.90;;;;;;5017782;28;20038;-61
2022/01/15 02:28:35;;;;;;;26.55;10.30;;;4.80;99.90;;;;;;5014748;28;20029;-61
2022/01/15 02:31:04;;;;;;;39.15;12.18;;;4.80;99.90;;;;;;5013706;28;20316;-61
2022/01/15 02:33:30;;;;;;;35.83;12.20;;;4.80;99.90;;;;;;5009856;28;20033;-63
2022/01/15 02:35:57;;;;;;;33.97;11.38;;;4.80;99.90;;;;;;5024988;28;20084;-62
2022/01/15 02:38:23;;;;;;;32.33;10.98;;;4.80;99.90;;;;;;5022760;28;20038;-61
2022/01/15 02:40:49;;;;;;;40.72;11.68;;;4.80;99.90;;;;;;5023585;28;20042;-61
2022/01/15 02:43:18;;;;;;;39.42;11.05;;;4.70;99.90;;;;;;5019720;28;20041;-62
2022/01/15 02:45:53;;;;;;;38.72;11.75;;;4.70;99.90;;;;;;5022459;28;20061;-61
2022/01/15 02:48:22;;;;;;;34.72;11.10;;;4.70;99.90;;;;;;5025706;28;20041;-61
2022/01/15 02:50:48;;;;;;;38.70;12.20;;;4.70;99.90;;;;;;5029512;28;20129;-62
2022/01/15 02:53:18;;;;;;;33.28;10.18;;;4.70;99.90;;;;;;5028239;28;20053;-61
2022/01/15 02:55:45;;;;;;;29.75;10.77;;;4.70;99.90;;;;;;5025988;28;20049;-62
2022/01/15 02:58:11;;;;;;;33.13;10.57;;;4.70;99.90;;;;;;5021781;28;20038;-60
2022/01/15 03:00:37;;;;;;;25.48;8.95;;;4.70;99.90;;;;;;5024449;28;20040;-60
2022/01/15 03:03:03;;;;;;;28.52;9.00;;;4.70;99.90;;;;;;5022440;28;20037;-61
2022/01/15 03:05:28;;;;;;;25.33;8.07;;;4.70;99.90;;;;;;5028471;28;20548;-61
2022/01/15 03:07:54;;;;;;;24.45;8.50;;;4.70;99.90;;;;;;5025055;28;20440;-61
2022/01/15 03:10:19;;;;;;;26.58;8.85;;;4.60;99.90;;;;;;5021745;28;20038;-61
2022/01/15 03:12:45;;;;;;;24.73;8.15;;;4.50;99.90;;;;;;5023552;28;20087;-61
2022/01/15 03:15:17;;;;;;;30.42;8.10;;;4.60;99.90;;;;;;5022243;28;20033;-61
2022/01/15 03:17:43;;;;;;;26.60;8.27;;;4.60;99.90;;;;;;5020968;28;20054;-64
2022/01/15 03:20:09;;;;;;;29.27;8.23;;;4.60;99.90;;;;;;5020699;28;20485;-61
2022/01/15 03:22:34;;;;;;;22.77;7.97;;;4.50;99.90;;;;;;5020272;28;20084;-61
2022/01/15 03:25:00;;;;;;;24.67;8.07;;;4.50;99.90;;;;;;5023977;28;20083;-61
2022/01/15 03:27:26;;;;;;;28.30;8.15;;;4.50;99.90;;;;;;5020975;28;20099;-61
2022/01/15 03:29:52;;;;;;;34.25;8.98;;;4.50;99.90;;;;;;5022887;28;20041;-62
2022/01/15 03:32:18;;;;;;;27.30;8.10;;;4.50;99.90;;;;;;5021602;28;20115;-62
2022/01/15 03:34:44;;;;;;;30.92;9.75;;;4.50;99.90;;;;;;5020305;28;20037;-61
2022/01/15 03:37:10;;;;;;;27.45;8.00;;;4.50;99.90;;;;;;5022066;28;20030;-61
2022/01/15 03:39:35;;;;;;;24.92;8.40;;;4.50;99.90;;;;;;5023339;28;20408;-61
2022/01/15 03:42:02;;;;;;;22.27;6.90;;;4.40;99.90;;;;;;5021280;28;20052;-61
2022/01/15 03:44:28;;;;;;;30.20;9.98;;;4.40;99.90;;;;;;5024458;28;20463;-62
2022/01/15 03:46:54;;;;;;;31.98;8.68;;;4.40;99.90;;;;;;5014895;28;20053;-61
2022/01/15 03:49:19;;;;;;;30.05;9.23;;;4.40;99.90;;;;;;5022262;28;20033;-61
2022/01/15 03:51:45;;;;;;;38.25;9.68;;;4.30;99.90;;;;;;5020566;28;20522;-62
2022/01/15 03:54:11;;;;;;;25.70;8.13;;;4.30;99.90;;;;;;5021804;28;20038;-64
2022/01/15 03:56:36;;;;;;;37.67;9.38;;;4.30;99.90;;;;;;5022535;28;20096;-61
2022/01/15 03:59:02;;;;;;;32.53;8.57;;;4.30;99.90;;;;;;5024204;28;20025;-62
2022/01/15 04:01:27;;;;;;;39.22;9.93;;;4.40;99.90;;;;;;5019793;28;20030;-62
2022/01/15 04:03:53;;;;;;;27.48;8.52;;;4.40;99.90;;;;;;5016002;28;20025;-61
2022/01/15 04:06:18;;;;;;;31.60;7.93;;;4.40;99.90;;;;;;5023095;28;20056;-61
2022/01/15 04:08:44;;;;;;;31.45;8.80;;;4.40;99.90;;;;;;5020695;28;20481;-61
2022/01/15 04:11:10;;;;;;;29.35;8.38;;;4.30;99.90;;;;;;5021364;28;20038;-62
2022/01/15 04:13:36;;;;;;;29.83;8.93;;;4.30;99.90;;;;;;5022128;28;20021;-61
2022/01/15 04:16:02;;;;;;;33.28;8.40;;;4.30;99.90;;;;;;5020257;28;20036;-61
2022/01/15 04:18:30;;;;;;;27.20;8.20;;;4.30;99.90;;;;;;5023387;28;20481;-61
2022/01/15 04:20:58;;;;;;;38.58;9.38;;;4.30;99.90;;;;;;5019121;28;20113;-61
2022/01/15 04:23:23;;;;;;;32.08;9.88;;;4.30;99.90;;;;;;5019692;28;20041;-61
2022/01/15 04:25:49;;;;;;;24.13;8.63;;;4.30;99.90;;;;;;5019586;28;20088;-62
2022/01/15 04:28:14;;;;;;;35.67;8.32;;;4.20;99.90;;;;;;5022307;28;20049;-61
2022/01/15 04:30:42;;;;;;;29.55;8.75;;;4.10;99.90;;;;;;5020804;28;20147;-61
2022/01/15 04:33:07;;;;;;;29.15;7.97;;;4.10;99.90;;;;;;5020865;28;20068;-62
2022/01/15 04:35:33;;;;;;;31.08;9.75;;;4.00;99.90;;;;;;5022008;28;20061;-61
2022/01/15 04:38:07;;;;;;;29.00;9.57;;;4.00;99.90;;;;;;5019184;28;20621;-62
2022/01/15 04:40:32;;;;;;;28.83;8.02;;;4.00;99.90;;;;;;5020488;28;20034;-63
2022/01/15 04:42:58;;;;;;;28.73;7.00;;;4.00;99.90;;;;;;5021250;28;20107;-60
2022/01/15 04:45:25;;;;;;;37.40;7.93;;;4.00;99.90;;;;;;5019921;28;20548;-61
2022/01/15 04:47:50;;;;;;;31.35;7.90;;;4.00;99.90;;;;;;5015356;28;20129;-62
2022/01/15 04:50:17;;;;;;;36.22;9.02;;;4.00;99.90;;;;;;5022162;28;20067;-62
2022/01/15 04:52:43;;;;;;;27.77;8.00;;;4.00;99.90;;;;;;5019037;28;20064;-61
2022/01/15 04:55:10;;;;;;;29.27;9.13;;;3.90;99.90;;;;;;5020777;28;20497;-62
2022/01/15 04:57:36;;;;;;;26.08;7.40;;;3.90;99.90;;;;;;5020673;28;20045;-61
2022/01/15 05:00:05;;;;;;;26.95;7.47;;;3.80;99.90;;;;;;5019723;28;20476;-61
2022/01/15 05:02:31;;;;;;;19.55;6.38;;;3.90;99.90;;;;;;5021329;28;20044;-61
2022/01/15 05:04:56;;;;;;;24.60;7.93;;;3.80;99.90;;;;;;5018861;28;20749;-61
2022/01/15 05:07:22;;;;;;;36.28;8.13;;;3.80;99.90;;;;;;5021160;28;20052;-61
2022/01/15 05:09:48;;;;;;;27.83;6.75;;;3.80;99.90;;;;;;5018566;28;20061;-61
2022/01/15 05:14:51;;;;;;;28.67;7.60;;;3.80;99.90;;;;;;5014980;28;20494;-62
2022/01/15 05:17:17;;;;;;;24.83;6.57;;;3.80;99.90;;;;;;5021755;28;20041;-61
2022/01/15 05:19:43;;;;;;;30.70;6.55;;;3.70;99.90;;;;;;5019692;28;20083;-62
2022/01/15 05:22:08;;;;;;;36.13;7.82;;;3.70;99.90;;;;;;5020029;28;20049;-62
2022/01/15 05:24:34;;;;;;;30.40;8.52;;;3.70;99.90;;;;;;5020739;28;20041;-61
2022/01/15 05:26:59;;;;;;;33.55;8.27;;;3.70;99.90;;;;;;5019025;28;20041;-62
2022/01/15 05:29:25;;;;;;;30.67;8.65;;;3.60;99.90;;;;;;5022285;28;20037;-62
2022/01/15 05:31:51;;;;;;;29.75;8.02;;;3.60;99.90;;;;;;5021303;28;20044;-61
2022/01/15 05:34:17;;;;;;;33.15;9.63;;;3.60;99.90;;;;;;5021931;28;20029;-61
2022/01/15 05:36:42;;;;;;;46.80;8.00;;;3.60;99.90;;;;;;5019357;28;20038;-62
2022/01/15 05:39:08;;;;;;;46.13;9.95;;;3.70;99.90;;;;;;5020505;28;20060;-61
2022/01/15 05:41:34;;;;;;;29.02;9.50;;;3.70;99.90;;;;;;5020736;28;20029;-63
2022/01/15 05:44:02;;;;;;;38.33;9.18;;;3.70;99.90;;;;;;5018570;28;20504;-61
2022/01/15 05:46:32;;;;;;;44.45;10.30;;;3.70;99.90;;;;;;5019496;28;20076;-60
2022/01/15 05:48:58;;;;;;;31.95;10.30;;;3.70;99.90;;;;;;5019295;28;20576;-61
2022/01/15 05:51:29;;;;;;;47.47;11.95;;;3.70;99.90;;;;;;5016898;28;20066;-61
2022/01/15 05:53:55;;;;;;;60.45;13.90;;;3.60;99.90;;;;;;5020762;28;20061;-62
2022/01/15 05:56:21;;;;;;;38.90;10.98;;;3.70;99.90;;;;;;5018414;28;20026;-62
2022/01/15 05:58:46;;;;;;;49.40;12.23;;;3.60;99.90;;;;;;5013952;28;20096;-61
2022/01/15 06:01:12;;;;;;;43.75;11.90;;;3.60;99.90;;;;;;5021016;28;20517;-60
2022/01/15 06:03:37;;;;;;;53.25;10.52;;;3.70;99.90;;;;;;5019209;28;20404;-61
2022/01/15 06:06:03;;;;;;;54.08;9.65;;;3.60;99.90;;;;;;5019950;28;20037;-61
2022/01/15 06:08:29;;;;;;;45.53;11.10;;;3.60;99.90;;;;;;5020137;28;20465;-62
2022/01/15 06:10:55;;;;;;;56.88;9.45;;;3.60;99.90;;;;;;5017209;28;20188;-61
2022/01/15 06:13:20;;;;;;;53.25;9.43;;;3.60;99.90;;;;;;5022212;28;20033;-62
2022/01/15 06:15:46;;;;;;;50.35;12.57;;;3.60;99.90;;;;;;5020512;28;20042;-62
2022/01/15 06:18:11;;;;;;;83.72;13.65;;;3.60;99.90;;;;;;5030673;28;20084;-61
2022/01/15 06:20:37;;;;;;;39.72;10.70;;;3.60;99.90;;;;;;5035675;28;20064;-61
2022/01/15 06:23:02;;;;;;;51.95;11.52;;;3.50;99.90;;;;;;5028735;28;20045;-61
2022/01/15 06:25:28;;;;;;;51.28;10.00;;;3.60;99.90;;;;;;5028607;28;20046;-61
2022/01/15 06:27:54;;;;;;;74.95;10.98;;;3.60;99.90;;;;;;5020961;28;20045;-61
2022/01/15 06:30:19;;;;;;;78.18;12.27;;;3.60;99.90;;;;;;5017575;28;20038;-61
2022/01/15 06:32:45;;;;;;;65.88;11.82;;;3.60;99.90;;;;;;5017465;28;20045;-61
2022/01/15 06:35:13;;;;;;;33.55;9.70;;;3.60;99.90;;;;;;5019144;28;20096;-61
2022/01/15 06:37:39;;;;;;;49.22;11.65;;;3.60;99.90;;;;;;5016981;28;20047;-61
2022/01/15 06:40:06;;;;;;;66.95;10.68;;;3.50;99.90;;;;;;5018016;28;20109;-60
2022/01/15 06:42:32;;;;;;;48.80;11.55;;;3.60;99.90;;;;;;5017221;28;20047;-63
2022/01/15 06:44:58;;;;;;;56.55;11.70;;;3.50;99.90;;;;;;5018264;28;20034;-61
2022/01/15 06:47:25;;;;;;;48.00;11.55;;;3.50;99.90;;;;;;5020297;28;20129;-61
2022/01/15 06:49:50;;;;;;;62.33;11.73;;;3.50;99.90;;;;;;5017196;28;20042;-63
2022/01/15 06:52:16;;;;;;;70.28;11.60;;;3.60;99.90;;;;;;5021000;28;20079;-60
2022/01/15 06:54:42;;;;;;;55.75;11.90;;;3.60;99.90;;;;;;5017185;28;20402;-60
2022/01/15 06:57:07;;;;;;;48.65;9.98;;;3.60;99.90;;;;;;5019928;28;20045;-62
2022/01/15 06:59:33;;;;;;;47.10;11.32;;;3.60;99.90;;;;;;5018526;28;20068;-61
2022/01/15 07:01:58;;;;;;;40.92;11.10;;;3.60;99.90;;;;;;5018468;28;20050;-62
2022/01/15 07:04:24;;;;;;;45.58;10.35;;;3.50;99.90;;;;;;5019848;28;20033;-61
2022/01/15 07:06:50;;;;;;;50.17;10.70;;;3.50;99.90;;;;;;5011693;28;20401;-61
2022/01/15 07:09:15;;;;;;;52.05;11.18;;;3.60;99.90;;;;;;5017206;28;20042;-61
2022/01/15 07:11:41;;;;;;;65.03;11.73;;;3.60;99.90;;;;;;5013850;28;20033;-61
2022/01/15 07:14:07;;;;;;;40.33;10.48;;;3.60;99.90;;;;;;5013793;28;20053;-61
2022/01/15 07:16:34;;;;;;;45.03;10.48;;;3.60;99.90;;;;;;5009409;28;20559;-61
2022/01/15 07:19:01;;;;;;;74.97;11.77;;;3.60;99.90;;;;;;5007939;28;20117;-62
2022/01/15 07:21:26;;;;;;;47.17;11.70;;;3.60;99.90;;;;;;5014433;28;20037;-61
2022/01/15 07:23:52;;;;;;;55.47;12.27;;;3.60;99.90;;;;;;5012149;28;20037;-61
2022/01/15 07:26:17;;;;;;;69.57;13.82;;;3.60;99.90;;;;;;5014693;28;20044;-61
2022/01/15 07:28:43;;;;;;;55.95;12.48;;;3.60;99.90;;;;;;5013553;28;20046;-63
2022/01/15 07:31:09;;;;;;;44.35;11.00;;;3.60;99.90;;;;;;5018279;28;20424;-62
2022/01/15 07:33:34;;;;;;;54.13;11.57;;;3.60;99.90;;;;;;5016230;28;20485;-60
2022/01/15 07:36:00;;;;;;;56.67;11.77;;;3.60;99.90;;;;;;5014010;28;20054;-61
2022/01/15 07:38:26;;;;;;;79.03;13.63;;;3.60;99.90;;;;;;5016392;28;20042;-61
2022/01/15 07:40:57;;;;;;;70.28;11.50;;;3.60;99.90;;;;;;5016960;28;20034;-62
2022/01/15 07:43:23;;;;;;;69.75;12.38;;;3.60;99.90;;;;;;5014678;28;20457;-61
2022/01/15 07:45:49;;;;;;;50.97;10.30;;;3.70;99.90;;;;;;5014495;28;20030;-62
2022/01/15 07:48:15;;;;;;;58.67;12.70;;;3.70;99.90;;;;;;5016083;28;20029;-61
2022/01/15 07:50:41;;;;;;;62.33;12.60;;;3.70;99.90;;;;;;5017990;28;20040;-61
2022/01/15 07:53:06;;;;;;;44.83;11.40;;;3.70;99.90;;;;;;5008563;28;20036;-62
2022/01/15 07:55:32;;;;;;;33.83;10.98;;;3.70;99.90;;;;;;5022846;28;20112;-61
2022/01/15 07:57:58;;;;;;;40.67;11.13;;;3.70;99.90;;;;;;5023526;28;20474;-61
2022/01/15 08:00:23;;;;;;;60.55;10.98;;;3.70;99.90;;;;;;5022080;28;20029;-62
2022/01/15 08:02:49;;;;;;;53.42;10.23;;;3.80;99.90;;;;;;5014411;28;20517;-61
2022/01/15 08:05:15;;;;;;;37.25;9.55;;;3.80;99.90;;;;;;5019630;28;20037;-62
2022/01/15 08:07:42;;;;;;;49.10;10.43;;;3.80;99.90;;;;;;5021862;28;20045;-63
2022/01/15 08:10:08;;;;;;;39.72;9.43;;;3.70;99.90;;;;;;5017198;28;20052;-63
2022/01/15 08:12:42;;;;;;;41.78;10.00;;;3.70;99.90;;;;;;5022022;28;20045;-61
2022/01/15 08:15:08;;;;;;;41.88;10.85;;;3.80;99.90;;;;;;5014081;28;20118;-61
2022/01/15 08:17:33;;;;;;;42.97;12.02;;;3.80;99.90;;;;;;5006689;28;20213;-62
2022/01/15 08:19:59;;;;;;;46.72;12.18;;;3.80;99.90;;;;;;5005907;28;20129;-62
2022/01/15 08:22:24;;;;;;;52.42;12.90;;;3.80;99.90;;;;;;5010178;28;20497;-61
2022/01/15 08:24:50;;;;;;;47.30;12.60;;;3.80;99.90;;;;;;5014735;28;20052;-62
2022/01/15 08:27:16;;;;;;;46.95;12.07;;;3.80;99.90;;;;;;5013903;28;20638;-61
2022/01/15 08:29:42;;;;;;;45.25;12.48;;;3.80;99.90;;;;;;5013070;28;20046;-60
2022/01/15 08:32:08;;;;;;;58.75;14.20;;;3.80;99.90;;;;;;5005677;28;20049;-61
2022/01/15 08:34:33;;;;;;;46.00;11.20;;;3.80;99.90;;;;;;5010030;28;20041;-60
2022/01/15 08:36:59;;;;;;;48.22;12.10;;;3.80;99.90;;;;;;5009290;28;20038;-61
2022/01/15 08:39:25;;;;;;;59.95;12.68;;;3.90;99.90;;;;;;5013521;28;20037;-62
2022/01/15 08:41:50;;;;;;;50.25;11.50;;;3.80;99.90;;;;;;5013999;28;20121;-62
2022/01/15 08:44:19;;;;;;;46.78;11.68;;;3.80;99.90;;;;;;5019955;28;20108;-62
2022/01/15 08:46:45;;;;;;;58.58;12.85;;;3.90;99.90;;;;;;5018673;28;20125;-62
2022/01/15 08:49:10;;;;;;;65.30;12.90;;;3.80;99.90;;;;;;5021013;28;20121;-60
2022/01/15 08:51:36;;;;;;;62.33;13.48;;;3.90;99.90;;;;;;5021668;28;20025;-62
2022/01/15 08:54:02;;;;;;;63.08;14.25;;;3.90;99.90;;;;;;5018461;28;20034;-61
2022/01/15 08:56:27;;;;;;;53.70;13.15;;;3.90;99.90;;;;;;5019491;28;20030;-62
2022/01/15 08:58:53;;;;;;;75.53;13.85;;;3.90;99.90;;;;;;5017161;28;20801;-62
2022/01/15 09:01:18;;;;;;;69.82;12.57;;;3.90;99.90;;;;;;5020557;28;20489;-64
2022/01/15 09:03:44;;;;;;;81.30;13.23;;;3.90;99.90;;;;;;5019055;28;20856;-62
2022/01/15 09:06:11;;;;;;;56.28;13.07;;;3.90;99.90;;;;;;5021767;28;20038;-61
2022/01/15 09:08:37;;;;;;;69.70;14.30;;;3.90;99.90;;;;;;5014434;28;20525;-62
2022/01/15 09:11:04;;;;;;;46.80;12.35;;;4.00;99.90;;;;;;5020957;28;20120;-63
2022/01/15 09:13:29;;;;;;;64.22;13.63;;;4.00;99.90;;;;;;5017592;28;20029;-62
2022/01/15 09:15:55;;;;;;;59.05;12.25;;;4.00;99.90;;;;;;5018268;28;20053;-61
2022/01/15 09:18:21;;;;;;;51.63;14.85;;;4.00;99.90;;;;;;5017592;28;20120;-61
2022/01/15 09:20:47;;;;;;;73.20;13.73;;;4.00;99.90;;;;;;5020371;28;20038;-62
2022/01/15 09:23:13;;;;;;;73.30;14.75;;;4.00;99.90;;;;;;5018668;28;20034;-61
2022/01/15 09:25:39;;;;;;;75.10;15.77;;;4.00;99.90;;;;;;5021931;28;20034;-61
2022/01/15 09:30:49;;;;;;;52.83;13.20;;;4.00;99.90;;;;;;5018108;28;20096;-63
2022/01/15 09:33:15;;;;;;;67.72;14.52;;;4.00;99.90;;;;;;5019596;28;20037;-62
2022/01/15 09:35:41;;;;;;;67.03;14.32;;;4.00;99.90;;;;;;5017378;28;20485;-61
2022/01/15 09:38:07;;;;;;;99.03;15.77;;;4.00;99.90;;;;;;5023577;28;20844;-62
2022/01/15 09:40:33;;;;;;;63.05;15.40;;;4.00;99.90;;;;;;5024563;28;20049;-63
2022/01/15 09:43:00;;;;;;;58.50;14.95;;;4.10;99.90;;;;;;5027514;28;20057;-62
2022/01/15 09:45:26;;;;;;;89.72;15.68;;;4.10;99.90;;;;;;5027403;28;20038;-62
2022/01/15 09:47:58;;;;;;;84.63;16.00;;;4.10;99.90;;;;;;5025936;28;20052;-61
2022/01/15 09:50:26;;;;;;;52.63;14.02;;;4.10;99.90;;;;;;5023142;28;20063;-65
2022/01/15 09:52:53;;;;;;;75.00;15.57;;;4.10;99.90;;;;;;5020309;28;20030;-61
2022/01/15 09:55:21;;;;;;;59.72;14.90;;;4.10;99.90;;;;;;5018364;28;20037;-61
2022/01/15 09:57:47;;;;;;;64.45;14.60;;;4.10;99.90;;;;;;5013098;28;20042;-62
2022/01/15 10:00:15;;;;;;;61.30;14.23;;;4.10;99.90;;;;;;5012595;28;20037;-61
2022/01/15 10:02:43;;;;;;;46.08;13.35;;;4.20;99.90;;;;;;5013936;28;20034;-60
2022/01/15 10:05:10;;;;;;;63.33;14.30;;;4.20;99.90;;;;;;5008810;28;20033;-61
2022/01/15 10:07:35;;;;;;;51.28;13.43;;;4.30;99.90;;;;;;5016535;28;20046;-61
2022/01/15 10:10:20;;;;;;;47.63;13.57;;;4.20;99.90;;;;;;5021036;28;20049;-61
2022/01/15 10:12:47;;;;;;;56.65;13.38;;;4.20;99.90;;;;;;5009727;28;20072;-61
2022/01/15 10:15:15;;;;;;;53.47;13.80;;;4.20;99.90;;;;;;5018717;28;20030;-61
2022/01/15 10:17:41;;;;;;;57.45;13.80;;;4.10;99.90;;;;;;5015856;28;20044;-62
2022/01/15 10:20:13;;;;;;;59.40;13.90;;;4.10;99.90;;;;;;5019042;28;20401;-61
2022/01/15 10:22:44;;;;;;;57.42;13.77;;;4.10;99.90;;;;;;5015741;28;20045;-60
2022/01/15 10:25:17;;;;;;;58.33;14.10;;;4.20;99.90;;;;;;5018138;28;20030;-61
2022/01/15 10:27:53;;;;;;;43.05;13.05;;;4.20;99.90;;;;;;5020351;28;20048;-61
2022/01/15 10:30:28;;;;;;;58.60;14.27;;;4.20;99.90;;;;;;5017824;28;20045;-60
2022/01/15 10:33:08;;;;;;;51.70;12.77;;;4.20;99.90;;;;;;5012698;28;20045;-61
2022/01/15 10:35:35;;;;;;;55.42;13.32;;;4.10;99.90;;;;;;5006357;28;20061;-61
2022/01/15 10:38:07;;;;;;;48.55;12.75;;;4.20;99.90;;;;;;5012813;28;20064;-60
2022/01/15 10:40:46;;;;;;;52.75;14.55;;;4.20;99.90;;;;;;5004875;28;20030;-61
2022/01/15 10:43:15;;;;;;;55.30;14.25;;;4.20;99.90;;;;;;5009122;28;20041;-61
2022/01/15 10:45:51;;;;;;;35.90;11.37;;;4.20;99.90;;;;;;5020227;28;20060;-61
2022/01/15 10:48:25;;;;;;;48.00;12.98;;;4.10;99.90;;;;;;5015128;28;20030;-61
2022/01/15 10:50:59;;;;;;;60.55;14.25;;;4.20;99.90;;;;;;5017229;28;20053;-63
2022/01/15 10:53:39;;;;;;;48.30;12.43;;;4.20;99.90;;;;;;5018031;28;20785;-61
2022/01/15 10:56:07;;;;;;;37.40;11.27;;;4.20;99.90;;;;;;5020243;28;20042;-61
2022/01/15 10:58:33;;;;;;;38.65;12.07;;;4.20;99.90;;;;;;5023540;28;20113;-61
2022/01/15 11:00:59;;;;;;;41.22;11.50;;;4.20;99.90;;;;;;5018643;28;20112;-61
2022/01/15 11:03:36;;;;;;;45.88;12.60;;;4.20;99.90;;;;;;5020367;28;20080;-61
2022/01/15 11:06:02;;;;;;;35.85;10.27;;;4.30;99.90;;;;;;5020482;28;20041;-61
2022/01/15 11:08:28;;;;;;;50.05;12.10;;;4.30;99.90;;;;;;5020291;28;20124;-62
2022/01/15 11:10:56;;;;;;;26.55;9.30;;;4.40;99.90;;;;;;5010167;28;20046;-60
2022/01/15 11:13:28;;;;;;;30.02;10.27;;;4.40;99.90;;;;;;5013870;28;20057;-61
2022/01/15 11:15:57;;;;;;;25.88;8.95;;;4.40;99.90;;;;;;5019521;28;20049;-61
2022/01/15 11:18:24;;;;;;;33.10;9.00;;;4.30;99.90;;;;;;5015451;28;20041;-61
2022/01/15 11:20:52;;;;;;;30.77;7.65;;;4.30;99.90;;;;;;5010466;28;20026;-62
2022/01/15 11:23:20;;;;;;;36.95;8.68;;;4.30;99.90;;;;;;5014005;28;20124;-61
2022/01/15 11:25:47;;;;;;;28.75;7.95;;;4.20;99.90;;;;;;5010386;28;20117;-60
2022/01/15 11:28:14;;;;;;;53.58;11.75;;;4.20;99.90;;;;;;5011200;28;20049;-61
2022/01/15 11:30:41;;;;;;;39.97;9.15;;;4.20;99.90;;;;;;5012441;28;20038;-61
2022/01/15 11:33:08;;;;;;;32.92;9.38;;;4.20;99.90;;;;;;5014951;28;20094;-61
2022/01/15 11:35:45;;;;;;;25.65;8.63;;;4.20;99.90;;;;;;5016739;28;20042;-61
2022/01/15 11:38:31;;;;;;;41.17;11.20;;;4.20;99.90;;;;;;5021448;28;20033;-63
2022/01/15 11:40:57;;;;;;;33.92;9.80;;;4.30;99.90;;;;;;5014063;28;20060;-61
2022/01/15 11:43:25;;;;;;;30.65;8.82;;;4.30;99.90;;;;;;5020171;28;20505;-61
2022/01/15 11:45:55;;;;;;;39.55;10.50;;;4.30;99.90;;;;;;5023164;28;20041;-60
2022/01/15 11:48:30;;;;;;;31.92;10.38;;;4.30;99.90;;;;;;5016649;28;20034;-61
2022/01/15 11:51:13;;;;;;;29.60;8.32;;;4.30;99.90;;;;;;5022098;28;20044;-61
2022/01/15 11:53:54;;;;;;;30.88;9.55;;;4.30;99.90;;;;;;5023679;28;20034;-61
2022/01/15 11:56:25;;;;;;;31.88;9.30;;;4.30;99.90;;;;;;5018326;28;20037;-61
2022/01/15 11:58:52;;;;;;;48.33;9.48;;;4.30;99.90;;;;;;5019498;28;20051;-60
2022/01/15 12:01:42;;;;;;;40.58;9.70;;;4.30;99.90;;;;;;5023877;28;20121;-61
2022/01/15 12:04:34;;;;;;;28.70;9.43;;;4.30;99.90;;;;;;5018895;28;20030;-61
2022/01/15 12:07:05;;;;;;;36.38;8.90;;;4.30;99.90;;;;;;5011251;28;20026;-61
2022/01/15 12:09:38;;;;;;;27.77;9.30;;;4.30;99.90;;;;;;5009350;28;20077;-61
2022/01/15 12:12:19;;;;;;;39.38;9.90;;;4.20;99.90;;;;;;5014525;28;20097;-61
2022/01/15 12:15:01;;;;;;;33.08;8.80;;;4.30;99.90;;;;;;5015770;28;20045;-63
2022/01/15 12:17:39;;;;;;;28.95;9.70;;;4.20;99.90;;;;;;5019772;28;20511;-60
2022/01/15 12:20:27;;;;;;;40.35;9.93;;;4.30;99.90;;;;;;5009735;28;20034;-62
2022/01/15 12:22:52;;;;;;;37.22;9.48;;;4.30;99.90;;;;;;5014454;28;20037;-61
2022/01/15 12:25:18;;;;;;;47.05;9.60;;;4.30;99.90;;;;;;5022659;28;20466;-61
2022/01/15 12:27:46;;;;;;;32.97;9.45;;;4.20;99.90;;;;;;5021951;28;20053;-61
2022/01/15 12:30:14;;;;;;;25.88;9.88;;;4.10;99.90;;;;;;5019798;28;20524;-61
2022/01/15 12:32:42;;;;;;;28.33;9.32;;;4.10;99.90;;;;;;5024540;28;20088;-60
2022/01/15 12:35:22;;;;;;;34.65;9.65;;;4.10;99.90;;;;;;5020951;28;20030;-61
2022/01/15 12:37:50;;;;;;;25.58;8.07;;;4.00;99.90;;;;;;5023278;28;20458;-61
2022/01/15 12:40:16;;;;;;;25.83;8.07;;;4.00;99.90;;;;;;5021029;28;20041;-61
2022/01/15 12:42:41;;;;;;;26.23;8.50;;;4.00;99.90;;;;;;5020925;28;20096;-60
2022/01/15 12:45:07;;;;;;;30.77;9.73;;;4.00;99.90;;;;;;5018165;28;20030;-62
2022/01/15 12:47:46;;;;;;;27.80;9.52;;;3.90;99.90;;;;;;5020974;28;20061;-61
2022/01/15 12:50:13;;;;;;;29.52;9.75;;;3.80;99.90;;;;;;5021112;28;20033;-61
2022/01/15 12:52:39;;;;;;;26.45;9.40;;;3.80;99.90;;;;;;5025052;28;20489;-61
2022/01/15 12:55:06;;;;;;;35.28;10.32;;;3.70;99.90;;;;;;5027585;28;20030;-61
2022/01/15 12:57:49;;;;;;;24.88;9.18;;;3.70;99.90;;;;;;5015887;28;20041;-61
2022/01/15 13:00:25;;;;;;;28.77;9.32;;;3.80;99.90;;;;;;5011121;28;20054;-62
2022/01/15 13:02:57;;;;;;;29.60;8.70;;;3.80;99.90;;;;;;5016090;28;20041;-61
2022/01/15 13:05:26;;;;;;;22.60;8.27;;;3.80;99.90;;;;;;5011550;28;20038;-61